Albuquerque, NM

12:37 AM MDT on August 22, 2014 (GMT -0600)
Albuquerque Double Eagle | Change Station
CLOSE
Current Station
Airport
Location: Albuquerque Double Eagle,
Elevation: 5837 ft
Nearby Weather Stations

Elev 5837 ft 35.15 °N, 106.79 °W | Updated 42 minutes ago

Scattered Clouds
Scattered Clouds
70 °F
Feels Like 70 °F
N
5
Wind Variable Wind from WSW

Today
High -- | Low -- °F
--% Chance of Precip.
Yesterday
High -- | Low -- °F
Precip. -- in
6:31 AM 7:46 PM
Waning Crescent, 10% visible
Pressure 30.16 in
Visibility 10.0 miles
Clouds Scattered Clouds 10000 ft
Dew Point 44 °F
Humidity 40%
Rainfall 0.00 in
Snow Depth Not available.
UV 0 out of 12
Pollen 7.60 out of 12
Air Quality Not available.
Flu Activity Not available.
METAR KAEG 220555Z AUTO 25004KT 10SM SCT100 21/07 A3016 RMK AO2 T02100069 10296 20210

More Conditions Fewer Conditions

Pressure 30.16 in
Visibility 10.0 miles
Clouds Scattered Clouds 10000 ft
Dew Point 44 °F
Humidity 40%
Rainfall 0.00 in
Snow Depth Not available.
UV 0 out of 12
Pollen 7.60 out of 12
Air Quality Not available.
Flu Activity Not available.
METAR KAEG 220555Z AUTO 25004KT 10SM SCT100 21/07 A3016 RMK AO2 T02100069 10296 20210

More Conditions Fewer Conditions

10-Day Weather Forecast

Almanac

Astronomy

Aug. 22, 2014 Rise Set
Actual Time 6:31 AM MDT 7:46 PM MDT
Civil Twilight 6:05 AM MDT 8:12 PM MDT
Nautical Twilight 5:33 AM MDT 8:44 PM MDT
Astronomical Twilight 5:01 AM MDT 9:16 PM MDT
Moon 3:59 AM MDT 5:54 PM MDT
Length of Visible Light 14h 07m
Length of Day
13h 14m
Tomorrow will be 2m 2s shorter.
Waning Crescent, 10% of the Moon is Illuminated
Today
Waning Crescent
Aug 25
New
Sep 2
First Quarter
Sep 8
Full
Sep 15
Last Quarter

Today's Extremes

State Highs State Lows

Community

WunderPhotos

Upload Photos

1,746,131 photos uploaded!

Nearby

Snow Depth

Station Depth Elevation
Quemazon 1 in 9500 ft
Senorita Divide #2 0 in 8600 ft
Wesner Springs 2 in 11120 ft
Gallegos Peak 0 in 9800 ft
Bateman 0 in 9300 ft

Earthquake Activity

City Distance Mag. Time & Date
No recent earthquake activity has been reported nearby.
Minimum magnitude displayed is 2.5.

Coastal Water Temperatures

Place Temperature
No Stations Reporting

Nearby Weather Stations